WIMM/MES METAR and TAF weather

Enter ICAO airport designator
Station Type Date Time Source
WIMM METAR 2020/05/29 20:00 UTC NOAA

WIMM 292000Z 25004KT 3700 BR SCT017 26/26 Q1010 NOSIG


Station Type Date Time Source
WIMM Decoded METAR 2020/05/29 20:00 UTC NOAA

Medan / Polonia, Indonesia (WIMM) 03-34N 098-41E 25M
May 29, 2020 - 04:00 PM EDT / 2020.05.29 2000 UTC
Wind: from the WSW (250 degrees) at 5 MPH (4 KT):0
Visibility: 2 mile(s):0
Sky conditions: partly cloudy
Weather: mist
Temperature: 78 F (26 C)
Dew Point: 78 F (26 C)
Relative Humidity: 100%
Pressure (altimeter): 29.83 in. Hg (1010 hPa)
ob: WIMM 292000Z 25004KT 3700 BR SCT017 26/26 Q1010 NOSIG
cycle: 20

Station Type Date Time Source
WIMM TAF 2020/05/29 18:09 UTC NOAA

TAF WIMM 291700Z 2918/3018 24004KT 5000 HZ SCT018
BECMG 3002/3004 01010KT 9000
BECMG 3011/3013 VRB04KT 5000 HZ

Example: see airport list